createdAt,value
2023-03-15T00:01:17.058Z,8.00
2023-03-15T00:03:51.542Z,3.83
2023-03-15T00:06:27.675Z,4.17
2023-03-15T00:09:17.734Z,5.40
2023-03-15T00:11:50.675Z,5.53
2023-03-15T00:14:21.345Z,5.23
2023-03-15T00:16:51.057Z,5.87
2023-03-15T00:19:20.445Z,6.87
2023-03-15T00:21:51.468Z,10.97
2023-03-15T00:24:25.253Z,9.50
2023-03-15T00:26:56.524Z,5.20
2023-03-15T00:29:28.143Z,2.80
2023-03-15T00:31:58.890Z,12.00
2023-03-15T00:34:30.882Z,7.70
2023-03-15T00:37:05.753Z,6.10
2023-03-15T00:39:38.181Z,4.10
2023-03-15T00:42:08.747Z,5.53
2023-03-15T00:44:43.437Z,8.30
2023-03-15T00:47:17.756Z,4.23
2023-03-15T00:49:47.694Z,8.83
2023-03-15T00:52:32.392Z,6.10
2023-03-15T00:55:02.609Z,7.47
2023-03-15T00:57:35.937Z,5.60
2023-03-15T01:00:10.008Z,6.87
2023-03-15T01:02:39.945Z,11.37
2023-03-15T01:05:13.708Z,7.53
2023-03-15T01:07:59.170Z,9.73
2023-03-15T01:10:37.239Z,9.63
2023-03-15T01:13:08.025Z,5.93
2023-03-15T01:15:40.323Z,8.47
2023-03-15T01:18:12.074Z,9.13
2023-03-15T01:20:48.492Z,6.87
2023-03-15T01:23:43.669Z,7.60
2023-03-15T01:26:17.216Z,10.40
2023-03-15T01:28:52.763Z,7.50
2023-03-15T01:31:40.818Z,4.40
2023-03-15T01:34:11.895Z,6.83
2023-03-15T01:36:41.649Z,9.53
2023-03-15T01:39:13.211Z,9.33
2023-03-15T01:41:43.335Z,10.00
2023-03-15T01:44:17.523Z,9.27
2023-03-15T01:46:48.231Z,6.33
2023-03-15T01:49:41.340Z,7.20
2023-03-15T01:52:14.779Z,9.17
2023-03-15T01:54:49.898Z,8.73
2023-03-15T01:57:27.311Z,7.53
2023-03-15T02:00:18.343Z,10.70
2023-03-15T02:02:52.109Z,6.43
2023-03-15T02:05:28.344Z,6.60
2023-03-15T02:08:01.792Z,10.47
2023-03-15T02:10:39.029Z,7.10
2023-03-15T02:13:10.468Z,6.30
2023-03-15T02:15:40.261Z,5.53
2023-03-15T02:18:09.525Z,13.30
2023-03-15T02:20:48.321Z,4.27
2023-03-15T02:23:20.926Z,7.30
2023-03-15T02:26:22.073Z,9.20
2023-03-15T02:28:57.212Z,6.50
2023-03-15T02:31:29.091Z,6.30
2023-03-15T02:34:04.367Z,6.53
2023-03-15T02:36:36.215Z,9.87
2023-03-15T02:39:17.575Z,7.27
2023-03-15T02:42:00.209Z,5.63
2023-03-15T02:44:36.017Z,5.70
2023-03-15T02:47:09.555Z,6.73
2023-03-15T02:49:43.612Z,7.10
2023-03-15T02:52:14.565Z,13.50
2023-03-15T02:54:44.405Z,9.93
2023-03-15T02:57:14.637Z,10.47
2023-03-15T02:59:45.468Z,15.03
2023-03-15T03:02:16.664Z,6.47
2023-03-15T03:04:46.116Z,6.53
2023-03-15T03:09:45.254Z,6.80
2023-03-15T03:13:15.035Z,8.60
2023-03-15T03:15:46.181Z,9.57
2023-03-15T03:18:15.381Z,8.30
2023-03-15T03:20:46.282Z,7.37
2023-03-15T03:23:22.938Z,8.63
2023-03-15T03:25:52.261Z,10.37
2023-03-15T03:28:42.302Z,8.13
2023-03-15T03:31:19.779Z,14.53
2023-03-15T03:33:48.987Z,10.10
2023-03-15T03:36:19.039Z,7.93
2023-03-15T03:38:49.349Z,7.20
2023-03-15T03:41:19.255Z,7.63
2023-03-15T03:43:48.960Z,6.50
2023-03-15T03:46:20.147Z,8.93
2023-03-15T03:48:52.332Z,10.93
2023-03-15T03:51:21.688Z,9.30
2023-03-15T03:53:50.306Z,5.80
2023-03-15T03:56:21.582Z,5.67
2023-03-15T03:58:52.039Z,11.27
2023-03-15T04:01:22.184Z,4.97
2023-03-15T04:03:51.412Z,8.37
2023-03-15T04:06:19.808Z,9.47
2023-03-15T04:08:48.244Z,11.83
2023-03-15T04:11:17.609Z,12.73
2023-03-15T04:13:48.641Z,7.87
2023-03-15T04:16:18.618Z,7.20
2023-03-15T04:18:48.653Z,10.37
2023-03-15T04:21:17.031Z,7.87
2023-03-15T04:23:45.429Z,5.07
2023-03-15T04:26:14.710Z,8.27
2023-03-15T04:28:43.395Z,5.57
2023-03-15T04:31:14.945Z,5.63
2023-03-15T04:33:44.901Z,6.30
2023-03-15T04:36:19.029Z,9.53
2023-03-15T04:38:50.200Z,7.27
2023-03-15T04:41:20.047Z,9.20
2023-03-15T04:43:48.470Z,5.80
2023-03-15T04:46:17.236Z,9.47
2023-03-15T04:48:50.653Z,8.30
2023-03-15T04:51:20.610Z,13.03
2023-03-15T04:53:49.105Z,10.17
2023-03-15T04:56:17.804Z,10.93
2023-03-15T04:58:46.192Z,7.50
2023-03-15T05:01:17.950Z,7.17
2023-03-15T05:03:46.432Z,13.07
2023-03-15T05:06:14.966Z,11.37
2023-03-15T05:08:45.452Z,3.90
2023-03-15T05:11:14.588Z,5.97
2023-03-15T05:13:43.250Z,9.83
2023-03-15T05:16:11.678Z,9.20
2023-03-15T05:18:41.100Z,7.80
2023-03-15T05:21:09.592Z,9.43
2023-03-15T05:23:39.259Z,10.17
2023-03-15T05:26:09.264Z,7.20
2023-03-15T05:28:37.612Z,5.60
2023-03-15T05:31:06.417Z,10.07
2023-03-15T05:33:34.853Z,6.73
2023-03-15T05:36:03.627Z,5.83
2023-03-15T05:38:32.096Z,8.57
2023-03-15T05:41:01.942Z,7.53
2023-03-15T05:43:31.898Z,6.30
2023-03-15T05:46:00.657Z,12.27
2023-03-15T05:48:29.387Z,9.13
2023-03-15T05:50:57.978Z,6.67
2023-03-15T05:53:27.026Z,9.67
2023-03-15T05:55:55.928Z,11.00
2023-03-15T05:58:24.805Z,6.33
2023-03-15T06:00:54.788Z,7.33
2023-03-15T06:03:23.496Z,7.37
2023-03-15T06:05:51.910Z,8.13
2023-03-15T06:08:20.760Z,6.93
2023-03-15T06:10:49.251Z,6.93
2023-03-15T06:13:18.407Z,7.27
2023-03-15T06:15:48.370Z,6.23
2023-03-15T06:18:18.612Z,7.57
2023-03-15T06:20:47.098Z,8.07
2023-03-15T06:23:15.852Z,7.07
2023-03-15T06:25:45.378Z,4.53
2023-03-15T06:28:13.843Z,8.57
2023-03-15T06:30:42.333Z,6.60
2023-03-15T06:33:11.932Z,7.60
2023-03-15T06:35:41.898Z,8.50
2023-03-15T06:38:11.937Z,8.17
2023-03-15T06:40:40.672Z,13.00
2023-03-15T06:43:09.103Z,5.93
2023-03-15T06:45:37.551Z,4.97
2023-03-15T06:48:06.737Z,6.70
2023-03-15T06:50:46.466Z,7.07
2023-03-15T06:53:17.837Z,5.37
2023-03-15T06:55:46.469Z,8.80
2023-03-15T06:58:15.527Z,7.57
2023-03-15T07:00:44.406Z,4.00
2023-03-15T07:03:12.822Z,3.83
2023-03-15T07:05:42.417Z,5.33
2023-03-15T07:08:10.883Z,4.10
2023-03-15T07:10:40.880Z,3.03
2023-03-15T07:13:10.170Z,10.03
2023-03-15T07:15:38.838Z,8.93
2023-03-15T07:18:07.736Z,8.67
2023-03-15T07:20:37.785Z,4.43
2023-03-15T07:23:06.367Z,6.87
2023-03-15T07:25:48.289Z,7.53
2023-03-15T07:28:22.377Z,6.77
2023-03-15T07:30:56.421Z,4.83
2023-03-15T07:33:26.701Z,8.07
2023-03-15T07:35:56.101Z,6.80
2023-03-15T07:38:27.066Z,5.57
2023-03-15T07:40:56.279Z,3.60
2023-03-15T07:43:26.448Z,7.50
2023-03-15T07:45:54.958Z,7.57
2023-03-15T07:48:23.524Z,10.00
2023-03-15T07:50:52.063Z,7.70
2023-03-15T07:53:20.753Z,3.97
2023-03-15T07:55:49.825Z,7.13
2023-03-15T07:58:20.285Z,4.63
2023-03-15T08:00:51.644Z,7.00
2023-03-15T08:03:20.237Z,13.40
2023-03-15T08:05:48.762Z,8.00
2023-03-15T08:08:18.518Z,10.73
2023-03-15T08:10:47.508Z,5.27
2023-03-15T08:13:16.210Z,6.60
2023-03-15T08:15:47.731Z,5.57
2023-03-15T08:18:17.587Z,5.43
2023-03-15T08:20:46.093Z,11.97
2023-03-15T08:23:16.764Z,6.27
2023-03-15T08:25:46.047Z,10.03
2023-03-15T08:28:14.784Z,9.17
2023-03-15T08:30:43.276Z,6.37
2023-03-15T08:33:13.464Z,10.43
2023-03-15T08:35:43.255Z,8.63
2023-03-15T08:38:11.776Z,5.37
2023-03-15T08:40:40.751Z,7.40
2023-03-15T08:43:11.235Z,9.13
2023-03-15T08:45:56.924Z,5.70
2023-03-15T08:48:28.137Z,8.53
2023-03-15T08:50:58.814Z,5.93
2023-03-15T08:53:27.674Z,7.17
2023-03-15T08:55:56.194Z,6.03
2023-03-15T08:58:24.974Z,13.50
2023-03-15T09:00:53.859Z,7.47
2023-03-15T09:03:24.124Z,8.73
2023-03-15T09:05:58.759Z,5.43
2023-03-15T09:08:28.842Z,7.63
2023-03-15T09:10:58.174Z,7.13
2023-03-15T09:13:27.672Z,9.00
2023-03-15T09:15:58.071Z,8.77
2023-03-15T09:18:27.927Z,10.40
2023-03-15T09:20:57.655Z,6.97
2023-03-15T09:23:28.279Z,9.50
2023-03-15T09:25:57.245Z,8.50
2023-03-15T09:28:26.729Z,5.77
2023-03-15T09:30:55.301Z,5.40
2023-03-15T09:33:24.193Z,6.67
2023-03-15T09:35:53.335Z,6.37
2023-03-15T09:38:24.242Z,5.60
2023-03-15T09:40:59.715Z,6.87
2023-03-15T09:44:03.314Z,7.60
2023-03-15T09:46:35.185Z,5.40
2023-03-15T09:49:13.414Z,5.70
2023-03-15T09:51:48.122Z,8.13
2023-03-15T09:54:23.779Z,4.40
2023-03-15T09:56:58.353Z,6.53
2023-03-15T09:59:32.780Z,7.90
2023-03-15T10:02:05.654Z,7.63
2023-03-15T10:04:40.548Z,6.50
2023-03-15T10:07:16.609Z,3.80
2023-03-15T10:09:46.458Z,4.40
2023-03-15T10:12:18.436Z,4.73
2023-03-15T10:15:23.853Z,11.80
2023-03-15T10:18:08.793Z,4.50
2023-03-15T10:20:43.966Z,3.83
2023-03-15T10:23:20.273Z,3.40
2023-03-15T10:25:52.398Z,7.43
2023-03-15T10:28:34.785Z,6.40
2023-03-15T10:31:25.696Z,8.30
2023-03-15T10:34:01.474Z,4.53
2023-03-15T10:36:30.269Z,8.13
2023-03-15T10:38:59.901Z,5.00
2023-03-15T10:41:37.692Z,5.27
2023-03-15T10:44:15.414Z,7.07
2023-03-15T10:46:44.084Z,6.27
2023-03-15T10:49:15.805Z,6.33
2023-03-15T10:51:47.402Z,5.60
2023-03-15T10:54:19.185Z,4.87
2023-03-15T10:56:50.780Z,6.20
2023-03-15T10:59:24.340Z,5.50
2023-03-15T11:01:54.849Z,5.50
2023-03-15T11:04:26.921Z,4.43
2023-03-15T11:07:04.160Z,5.53
2023-03-15T11:09:42.564Z,6.90
2023-03-15T11:12:19.394Z,6.07
2023-03-15T11:14:53.168Z,7.73
2023-03-15T11:17:25.272Z,3.20
2023-03-15T11:19:59.780Z,6.07
2023-03-15T11:22:28.464Z,4.87
2023-03-15T11:24:59.086Z,6.00
2023-03-15T11:27:29.876Z,5.67
2023-03-15T11:30:02.264Z,5.13
2023-03-15T11:32:33.186Z,6.47
2023-03-15T11:35:05.818Z,7.90
2023-03-15T11:37:40.486Z,2.30
2023-03-15T11:40:19.153Z,5.17
2023-03-15T11:42:56.568Z,5.90
2023-03-15T11:45:36.903Z,4.47
2023-03-15T11:48:12.714Z,3.83
2023-03-15T11:50:41.368Z,7.90
2023-03-15T11:53:14.108Z,5.93
2023-03-15T11:55:42.835Z,6.37
2023-03-15T11:58:35.322Z,7.83
2023-03-15T12:01:06.721Z,4.60
2023-03-15T12:03:40.551Z,5.13
2023-03-15T12:06:30.033Z,7.93
2023-03-15T12:08:58.518Z,5.73
2023-03-15T12:11:44.008Z,7.67
2023-03-15T12:14:32.144Z,5.23
2023-03-15T12:17:46.285Z,2.80
2023-03-15T12:20:29.545Z,3.23
2023-03-15T12:23:23.444Z,3.73
2023-03-15T12:25:58.178Z,4.67
2023-03-15T12:28:32.710Z,3.87
2023-03-15T12:31:04.428Z,3.40
2023-03-15T12:33:46.265Z,2.70
2023-03-15T12:36:32.037Z,4.27
2023-03-15T12:39:05.702Z,4.70
2023-03-15T12:41:40.686Z,4.03
2023-03-15T12:44:28.166Z,3.03
2023-03-15T12:47:01.145Z,4.20
2023-03-15T12:49:42.972Z,5.67
2023-03-15T12:52:42.972Z,3.37
2023-03-15T12:55:17.527Z,6.30
2023-03-15T12:57:54.018Z,5.37
2023-03-15T13:00:26.233Z,5.93
2023-03-15T13:03:04.062Z,2.83
2023-03-15T13:05:45.230Z,3.70
2023-03-15T13:08:23.162Z,4.83
2023-03-15T13:11:19.035Z,2.60
2023-03-15T13:14:14.925Z,5.87
2023-03-15T13:16:49.068Z,2.90
2023-03-15T13:19:22.974Z,4.10
2023-03-15T13:22:11.001Z,2.70
2023-03-15T13:24:50.764Z,3.20
2023-03-15T13:27:38.596Z,4.57
2023-03-15T13:30:43.145Z,3.80
2023-03-15T13:33:23.510Z,3.00
2023-03-15T13:35:59.137Z,3.50
2023-03-15T13:38:33.687Z,4.70
2023-03-15T13:41:05.309Z,5.17
2023-03-15T13:43:37.321Z,2.07
2023-03-15T13:46:06.874Z,4.37
2023-03-15T13:48:37.325Z,5.67
2023-03-15T13:51:09.709Z,4.53
2023-03-15T13:53:49.593Z,2.87
2023-03-15T13:56:21.687Z,4.40
2023-03-15T13:58:52.078Z,2.80
2023-03-15T14:01:23.226Z,4.50
2023-03-15T14:03:59.107Z,4.23
2023-03-15T14:06:30.273Z,3.03
2023-03-15T14:09:10.273Z,4.03
2023-03-15T14:11:40.744Z,3.63
2023-03-15T14:14:25.145Z,2.93
2023-03-15T14:17:04.985Z,4.20
2023-03-15T14:19:36.914Z,6.03
2023-03-15T14:22:16.672Z,3.27
2023-03-15T14:24:50.102Z,4.83
2023-03-15T14:27:21.625Z,4.40
2023-03-15T14:29:53.556Z,3.50
2023-03-15T14:32:29.896Z,3.73
2023-03-15T14:35:05.168Z,3.47
2023-03-15T14:37:39.647Z,3.53
2023-03-15T14:40:22.486Z,3.03
2023-03-15T14:42:52.633Z,2.80
2023-03-15T14:45:22.319Z,2.90
2023-03-15T14:47:57.127Z,1.87
2023-03-15T14:50:28.879Z,2.47
2023-03-15T14:53:04.293Z,3.10
2023-03-15T14:55:36.779Z,1.97
2023-03-15T14:58:11.199Z,2.00
2023-03-15T15:00:40.186Z,2.17
2023-03-15T15:03:16.412Z,5.60
2023-03-15T15:05:45.053Z,2.90
2023-03-15T15:08:16.137Z,2.97
2023-03-15T15:10:48.342Z,2.57
2023-03-15T15:13:21.228Z,4.03
2023-03-15T15:15:55.604Z,3.53
2023-03-15T15:18:26.626Z,4.37
2023-03-15T15:20:57.484Z,3.50
2023-03-15T15:23:30.422Z,3.07
2023-03-15T15:26:03.071Z,3.63
2023-03-15T15:28:36.573Z,6.17
2023-03-15T15:31:07.928Z,4.07
2023-03-15T15:33:36.851Z,6.47
2023-03-15T15:36:08.252Z,5.33
2023-03-15T15:38:39.164Z,4.20
2023-03-15T15:41:16.006Z,4.47
2023-03-15T15:43:45.057Z,2.97
2023-03-15T15:46:15.029Z,2.77
2023-03-15T15:48:43.710Z,3.40
2023-03-15T15:51:28.059Z,2.50
2023-03-15T15:53:59.707Z,2.63
2023-03-15T15:56:35.010Z,4.63
2023-03-15T15:59:05.860Z,4.00
2023-03-15T16:01:34.442Z,4.10
2023-03-15T16:04:04.458Z,3.53
2023-03-15T16:06:33.654Z,5.53
2023-03-15T16:09:03.176Z,4.57
2023-03-15T16:11:33.922Z,3.50
2023-03-15T16:14:02.689Z,3.70
2023-03-15T16:16:31.390Z,6.07
2023-03-15T16:19:00.168Z,4.70
2023-03-15T16:21:40.091Z,2.37
2023-03-15T16:24:15.426Z,3.50
2023-03-15T16:26:46.386Z,2.70
2023-03-15T16:29:19.311Z,3.67
2023-03-15T16:31:48.778Z,4.30
2023-03-15T16:34:23.637Z,6.70
2023-03-15T16:36:56.101Z,4.30
2023-03-15T16:39:25.174Z,3.70
2023-03-15T16:41:55.334Z,3.43
2023-03-15T16:44:23.776Z,3.90
2023-03-15T16:46:52.426Z,4.70
2023-03-15T16:49:21.206Z,4.43
2023-03-15T16:51:52.822Z,6.07
2023-03-15T16:54:40.022Z,4.20
2023-03-15T16:57:17.912Z,5.07
2023-03-15T16:59:46.419Z,3.70
2023-03-15T17:02:26.545Z,4.13
2023-03-15T17:04:55.620Z,8.37
2023-03-15T17:07:31.480Z,2.87
2023-03-15T17:10:02.198Z,4.67
2023-03-15T17:12:32.471Z,3.40
2023-03-15T17:15:02.333Z,3.27
2023-03-15T17:17:33.634Z,4.23
2023-03-15T17:20:02.469Z,3.33
2023-03-15T17:22:31.053Z,5.80
2023-03-15T17:25:00.157Z,4.00
2023-03-15T17:27:39.959Z,7.63
2023-03-15T17:30:18.571Z,5.07
2023-03-15T17:32:47.977Z,4.60
2023-03-15T17:35:18.946Z,5.70
2023-03-15T17:37:48.088Z,4.17
2023-03-15T17:40:25.203Z,5.67
2023-03-15T17:42:58.566Z,4.33
2023-03-15T17:45:29.840Z,3.77
2023-03-15T17:47:58.856Z,4.23
2023-03-15T17:50:30.027Z,2.73
2023-03-15T17:53:00.892Z,5.37
2023-03-15T17:55:31.709Z,3.70
2023-03-15T18:00:43.757Z,3.70
2023-03-15T18:03:14.842Z,4.93
2023-03-15T18:05:43.732Z,5.60
2023-03-15T18:08:13.529Z,5.37
2023-03-15T18:10:43.639Z,7.90
2023-03-15T18:13:17.630Z,6.50
2023-03-15T18:15:49.754Z,7.53
2023-03-15T18:18:18.613Z,6.07
2023-03-15T18:20:49.745Z,7.23
2023-03-15T18:23:18.850Z,7.43
2023-03-15T18:25:48.357Z,12.50
2023-03-15T18:28:16.862Z,18.47
2023-03-15T18:30:46.829Z,20.03
2023-03-15T18:33:16.052Z,18.73
2023-03-15T18:35:45.052Z,17.27
2023-03-15T18:38:13.534Z,11.33
2023-03-15T18:40:43.800Z,11.50
2023-03-15T18:43:15.181Z,13.67
2023-03-15T18:45:46.075Z,12.83
2023-03-15T18:48:39.785Z,15.90
2023-03-15T18:51:12.213Z,12.80
2023-03-15T18:53:41.248Z,12.63
2023-03-15T18:56:19.324Z,16.60
2023-03-15T18:58:48.005Z,16.07
2023-03-15T19:01:18.738Z,19.73
2023-03-15T19:03:48.804Z,19.77
2023-03-15T19:06:18.447Z,16.47
2023-03-15T19:08:48.939Z,15.40
2023-03-15T19:11:20.447Z,17.40
2023-03-15T19:13:51.354Z,18.17
2023-03-15T19:16:20.270Z,23.77
2023-03-15T19:18:51.732Z,17.57
2023-03-15T19:21:21.008Z,22.23
2023-03-15T19:23:49.536Z,29.07
2023-03-15T19:26:18.332Z,21.60
2023-03-15T19:28:46.959Z,33.70
2023-03-15T19:31:15.574Z,26.57
2023-03-15T19:33:44.109Z,31.77
2023-03-15T19:36:14.031Z,34.20
2023-03-15T19:38:42.687Z,26.80
2023-03-15T19:41:13.196Z,26.73
2023-03-15T19:43:43.721Z,30.27
2023-03-15T19:46:14.124Z,27.40
2023-03-15T19:48:45.464Z,25.43
2023-03-15T19:51:16.452Z,27.43
2023-03-15T19:53:44.930Z,21.27
2023-03-15T19:56:13.415Z,19.43
2023-03-15T19:58:41.921Z,20.23
2023-03-15T20:01:10.407Z,17.90
2023-03-15T20:03:38.946Z,18.87
2023-03-15T20:06:10.016Z,20.27
2023-03-15T20:08:43.304Z,17.70
2023-03-15T20:11:14.949Z,18.47
2023-03-15T20:13:44.053Z,17.03
2023-03-15T20:16:12.588Z,16.07
2023-03-15T20:18:41.077Z,15.47
2023-03-15T20:21:09.848Z,15.40
2023-03-15T20:23:39.921Z,14.60
2023-03-15T20:26:11.006Z,16.33
2023-03-15T20:28:40.975Z,15.10
2023-03-15T20:31:15.571Z,18.87
2023-03-15T20:33:44.529Z,15.30
2023-03-15T20:36:13.056Z,15.13
2023-03-15T20:38:47.326Z,14.00
2023-03-15T20:41:18.098Z,12.27
2023-03-15T20:43:47.447Z,10.80
2023-03-15T20:46:20.530Z,10.53
2023-03-15T20:48:48.933Z,9.77
2023-03-15T20:51:17.354Z,10.00
2023-03-15T20:53:50.459Z,11.10
2023-03-15T20:56:19.364Z,11.63
2023-03-15T20:58:47.921Z,8.63
2023-03-15T21:01:17.986Z,12.80
2023-03-15T21:03:52.351Z,11.67
2023-03-15T21:06:21.062Z,11.93
2023-03-15T21:08:51.130Z,12.63
2023-03-15T21:11:19.558Z,9.90
2023-03-15T21:13:48.274Z,7.70
2023-03-15T21:16:17.039Z,8.90
2023-03-15T21:18:51.970Z,10.53
2023-03-15T21:21:23.909Z,7.83
2023-03-15T21:23:55.774Z,9.90
2023-03-15T21:26:24.314Z,7.77
2023-03-15T21:28:52.811Z,8.33
2023-03-15T21:31:39.221Z,9.07
2023-03-15T21:34:07.902Z,9.17
2023-03-15T21:36:36.533Z,10.07
2023-03-15T21:39:07.819Z,8.23
2023-03-15T21:41:40.745Z,8.00
2023-03-15T21:44:09.593Z,8.10
2023-03-15T21:46:40.344Z,9.13
2023-03-15T21:49:10.483Z,12.13
2023-03-15T21:51:39.102Z,8.13
2023-03-15T21:54:11.754Z,8.47
2023-03-15T21:56:40.361Z,9.47
2023-03-15T21:59:09.376Z,8.87
2023-03-15T22:01:40.645Z,9.13
2023-03-15T22:04:09.441Z,7.40
2023-03-15T22:06:38.366Z,10.13
2023-03-15T22:09:09.473Z,5.53
2023-03-15T22:11:39.404Z,6.73
2023-03-15T22:14:07.893Z,6.23
2023-03-15T22:16:38.340Z,6.17
2023-03-15T22:19:07.055Z,8.57
2023-03-15T22:21:42.916Z,6.90
2023-03-15T22:24:15.557Z,10.80
2023-03-15T22:26:44.360Z,5.77
2023-03-15T22:29:15.040Z,7.77
2023-03-15T22:31:45.042Z,7.80
2023-03-15T22:34:13.458Z,9.97
2023-03-15T22:36:42.820Z,12.47
2023-03-15T22:39:14.417Z,8.00
2023-03-15T22:42:19.372Z,8.40
2023-03-15T22:44:47.837Z,7.63
2023-03-15T22:47:17.081Z,9.37
2023-03-15T22:49:48.492Z,7.13
2023-03-15T22:52:16.896Z,9.83
2023-03-15T22:54:47.054Z,10.67
2023-03-15T22:57:15.470Z,8.47
2023-03-15T22:59:43.979Z,10.20
2023-03-15T23:02:13.146Z,9.43
2023-03-15T23:04:41.997Z,10.53
2023-03-15T23:07:10.609Z,11.40
2023-03-15T23:09:39.142Z,11.70
2023-03-15T23:12:10.003Z,8.70
2023-03-15T23:14:38.820Z,9.87
2023-03-15T23:17:08.265Z,7.57
2023-03-15T23:19:36.711Z,9.53
2023-03-15T23:22:06.382Z,8.53
2023-03-15T23:24:36.233Z,7.43
2023-03-15T23:27:05.153Z,7.97
2023-03-15T23:29:47.108Z,9.10
2023-03-15T23:32:22.310Z,8.97
2023-03-15T23:34:51.181Z,9.63
2023-03-15T23:37:19.528Z,11.40
2023-03-15T23:39:48.242Z,10.17
2023-03-15T23:42:16.644Z,5.60
2023-03-15T23:44:46.384Z,9.07
2023-03-15T23:47:14.828Z,8.83
2023-03-15T23:49:43.642Z,6.97
2023-03-15T23:52:28.659Z,6.73
2023-03-15T23:54:58.639Z,7.93
2023-03-15T23:57:27.825Z,12.10
